sensor_id;sensor_type;location;lat;lon;timestamp;P1;durP1;ratioP1;P2;durP2;ratioP2
57281;SDS011;43129;52.628;10.098;2023-08-21T00:00:56;11.98;;;7.63;;
57281;SDS011;43129;52.628;10.098;2023-08-21T00:03:22;9.32;;;7.45;;
57281;SDS011;43129;52.628;10.098;2023-08-21T00:05:47;9.18;;;7.65;;
57281;SDS011;43129;52.628;10.098;2023-08-21T00:08:13;9.30;;;7.60;;
57281;SDS011;43129;52.628;10.098;2023-08-21T00:10:39;11.20;;;8.25;;
57281;SDS011;43129;52.628;10.098;2023-08-21T00:13:09;11.60;;;7.88;;
57281;SDS011;43129;52.628;10.098;2023-08-21T00:15:38;9.45;;;7.60;;
57281;SDS011;43129;52.628;10.098;2023-08-21T00:18:04;9.40;;;7.45;;
57281;SDS011;43129;52.628;10.098;2023-08-21T00:20:30;8.55;;;7.47;;
57281;SDS011;43129;52.628;10.098;2023-08-21T00:22:56;12.38;;;8.10;;
57281;SDS011;43129;52.628;10.098;2023-08-21T00:25:22;12.23;;;8.52;;
57281;SDS011;43129;52.628;10.098;2023-08-21T00:27:48;11.60;;;7.80;;
57281;SDS011;43129;52.628;10.098;2023-08-21T00:30:16;10.40;;;8.07;;
57281;SDS011;43129;52.628;10.098;2023-08-21T00:32:42;10.68;;;8.18;;
57281;SDS011;43129;52.628;10.098;2023-08-21T00:35:09;11.00;;;8.00;;
57281;SDS011;43129;52.628;10.098;2023-08-21T00:37:35;9.88;;;7.97;;
57281;SDS011;43129;52.628;10.098;2023-08-21T00:40:04;11.20;;;7.55;;
57281;SDS011;43129;52.628;10.098;2023-08-21T00:42:35;10.88;;;7.45;;
57281;SDS011;43129;52.628;10.098;2023-08-21T00:45:03;11.90;;;8.00;;
57281;SDS011;43129;52.628;10.098;2023-08-21T00:47:28;11.15;;;8.40;;
57281;SDS011;43129;52.628;10.098;2023-08-21T00:49:54;9.45;;;7.55;;
57281;SDS011;43129;52.628;10.098;2023-08-21T00:52:20;9.43;;;7.60;;
57281;SDS011;43129;52.628;10.098;2023-08-21T00:54:49;14.00;;;9.10;;
57281;SDS011;43129;52.628;10.098;2023-08-21T00:57:15;11.43;;;8.30;;
57281;SDS011;43129;52.628;10.098;2023-08-21T00:59:41;11.73;;;7.90;;
57281;SDS011;43129;52.628;10.098;2023-08-21T01:02:06;11.57;;;7.82;;
57281;SDS011;43129;52.628;10.098;2023-08-21T01:04:32;10.95;;;8.18;;
57281;SDS011;43129;52.628;10.098;2023-08-21T01:06:58;12.18;;;8.45;;
57281;SDS011;43129;52.628;10.098;2023-08-21T01:11:56;14.98;;;8.60;;
57281;SDS011;43129;52.628;10.098;2023-08-21T01:17:20;11.40;;;8.30;;
57281;SDS011;43129;52.628;10.098;2023-08-21T01:19:48;9.60;;;7.72;;
57281;SDS011;43129;52.628;10.098;2023-08-21T01:22:15;10.20;;;8.15;;
57281;SDS011;43129;52.628;10.098;2023-08-21T01:24:46;10.48;;;8.65;;
57281;SDS011;43129;52.628;10.098;2023-08-21T01:27:12;12.23;;;8.68;;
57281;SDS011;43129;52.628;10.098;2023-08-21T01:29:43;10.02;;;8.50;;
57281;SDS011;43129;52.628;10.098;2023-08-21T01:34:37;13.05;;;8.70;;
57281;SDS011;43129;52.628;10.098;2023-08-21T01:37:04;11.55;;;8.43;;
57281;SDS011;43129;52.628;10.098;2023-08-21T01:39:30;11.48;;;8.00;;
57281;SDS011;43129;52.628;10.098;2023-08-21T01:42:01;9.85;;;8.68;;
57281;SDS011;43129;52.628;10.098;2023-08-21T01:44:27;11.32;;;7.95;;
57281;SDS011;43129;52.628;10.098;2023-08-21T01:46:55;9.13;;;8.07;;
57281;SDS011;43129;52.628;10.098;2023-08-21T01:49:22;11.43;;;7.80;;
57281;SDS011;43129;52.628;10.098;2023-08-21T01:51:48;9.57;;;8.35;;
57281;SDS011;43129;52.628;10.098;2023-08-21T01:54:14;9.20;;;7.45;;
57281;SDS011;43129;52.628;10.098;2023-08-21T01:56:39;12.75;;;8.40;;
57281;SDS011;43129;52.628;10.098;2023-08-21T01:59:09;11.55;;;8.00;;
57281;SDS011;43129;52.628;10.098;2023-08-21T02:01:37;10.07;;;8.30;;
57281;SDS011;43129;52.628;10.098;2023-08-21T02:04:08;14.43;;;8.95;;
57281;SDS011;43129;52.628;10.098;2023-08-21T02:06:33;12.85;;;9.65;;
57281;SDS011;43129;52.628;10.098;2023-08-21T02:09:01;9.10;;;8.15;;
57281;SDS011;43129;52.628;10.098;2023-08-21T02:11:32;10.88;;;8.95;;
57281;SDS011;43129;52.628;10.098;2023-08-21T02:13:57;11.20;;;8.48;;
57281;SDS011;43129;52.628;10.098;2023-08-21T02:16:23;9.65;;;8.85;;
57281;SDS011;43129;52.628;10.098;2023-08-21T02:18:49;9.48;;;8.57;;
57281;SDS011;43129;52.628;10.098;2023-08-21T02:21:14;10.77;;;8.30;;
57281;SDS011;43129;52.628;10.098;2023-08-21T02:23:40;12.75;;;8.82;;
57281;SDS011;43129;52.628;10.098;2023-08-21T02:26:10;11.88;;;8.70;;
57281;SDS011;43129;52.628;10.098;2023-08-21T02:28:40;11.75;;;8.32;;
57281;SDS011;43129;52.628;10.098;2023-08-21T02:31:11;9.05;;;8.13;;
57281;SDS011;43129;52.628;10.098;2023-08-21T02:33:37;9.82;;;8.82;;
57281;SDS011;43129;52.628;10.098;2023-08-21T02:36:05;10.15;;;9.00;;
57281;SDS011;43129;52.628;10.098;2023-08-21T02:38:32;12.95;;;9.18;;
57281;SDS011;43129;52.628;10.098;2023-08-21T02:41:00;10.45;;;9.27;;
57281;SDS011;43129;52.628;10.098;2023-08-21T02:43:25;14.93;;;10.30;;
57281;SDS011;43129;52.628;10.098;2023-08-21T02:45:51;13.43;;;9.63;;
57281;SDS011;43129;52.628;10.098;2023-08-21T02:48:19;12.43;;;10.50;;
57281;SDS011;43129;52.628;10.098;2023-08-21T02:50:45;17.70;;;10.98;;
57281;SDS011;43129;52.628;10.098;2023-08-21T02:53:13;11.13;;;10.13;;
57281;SDS011;43129;52.628;10.098;2023-08-21T02:55:38;13.10;;;11.05;;
57281;SDS011;43129;52.628;10.098;2023-08-21T02:58:04;12.80;;;10.90;;
57281;SDS011;43129;52.628;10.098;2023-08-21T03:00:30;15.35;;;11.25;;
57281;SDS011;43129;52.628;10.098;2023-08-21T03:03:00;19.83;;;12.98;;
57281;SDS011;43129;52.628;10.098;2023-08-21T03:05:26;14.63;;;11.15;;
57281;SDS011;43129;52.628;10.098;2023-08-21T03:07:51;13.00;;;11.48;;
57281;SDS011;43129;52.628;10.098;2023-08-21T03:10:17;13.88;;;11.70;;
57281;SDS011;43129;52.628;10.098;2023-08-21T03:12:45;14.07;;;11.05;;
57281;SDS011;43129;52.628;10.098;2023-08-21T03:15:11;14.88;;;11.93;;
57281;SDS011;43129;52.628;10.098;2023-08-21T03:17:39;13.90;;;11.20;;
57281;SDS011;43129;52.628;10.098;2023-08-21T03:20:06;13.63;;;10.38;;
57281;SDS011;43129;52.628;10.098;2023-08-21T03:22:32;12.95;;;10.43;;
57281;SDS011;43129;52.628;10.098;2023-08-21T03:24:58;11.18;;;9.98;;
57281;SDS011;43129;52.628;10.098;2023-08-21T03:27:24;14.98;;;12.25;;
57281;SDS011;43129;52.628;10.098;2023-08-21T03:29:49;12.05;;;10.85;;
57281;SDS011;43129;52.628;10.098;2023-08-21T03:32:18;15.65;;;11.27;;
57281;SDS011;43129;52.628;10.098;2023-08-21T03:34:43;14.20;;;11.52;;
57281;SDS011;43129;52.628;10.098;2023-08-21T03:37:09;16.15;;;12.10;;
57281;SDS011;43129;52.628;10.098;2023-08-21T03:39:35;11.63;;;10.45;;
57281;SDS011;43129;52.628;10.098;2023-08-21T03:42:01;14.93;;;10.60;;
57281;SDS011;43129;52.628;10.098;2023-08-21T03:44:29;17.05;;;11.70;;
57281;SDS011;43129;52.628;10.098;2023-08-21T03:46:57;17.15;;;12.80;;
57281;SDS011;43129;52.628;10.098;2023-08-21T03:49:22;12.90;;;11.50;;
57281;SDS011;43129;52.628;10.098;2023-08-21T03:51:50;13.02;;;11.23;;
57281;SDS011;43129;52.628;10.098;2023-08-21T03:54:16;12.90;;;11.32;;
57281;SDS011;43129;52.628;10.098;2023-08-21T03:56:44;17.90;;;11.43;;
57281;SDS011;43129;52.628;10.098;2023-08-21T03:59:10;14.27;;;10.82;;
57281;SDS011;43129;52.628;10.098;2023-08-21T04:01:35;13.00;;;11.57;;
57281;SDS011;43129;52.628;10.098;2023-08-21T04:04:01;22.95;;;12.02;;
57281;SDS011;43129;52.628;10.098;2023-08-21T04:06:31;14.90;;;10.38;;
57281;SDS011;43129;52.628;10.098;2023-08-21T04:08:57;18.92;;;12.82;;
57281;SDS011;43129;52.628;10.098;2023-08-21T04:11:22;12.07;;;10.00;;
57281;SDS011;43129;52.628;10.098;2023-08-21T04:13:52;16.67;;;10.70;;
57281;SDS011;43129;52.628;10.098;2023-08-21T04:16:18;12.00;;;10.80;;
57281;SDS011;43129;52.628;10.098;2023-08-21T04:18:46;12.05;;;10.65;;
57281;SDS011;43129;52.628;10.098;2023-08-21T04:21:11;12.98;;;10.88;;
57281;SDS011;43129;52.628;10.098;2023-08-21T04:23:40;13.00;;;10.77;;
57281;SDS011;43129;52.628;10.098;2023-08-21T04:26:08;18.02;;;10.73;;
57281;SDS011;43129;52.628;10.098;2023-08-21T04:28:35;14.00;;;10.93;;
57281;SDS011;43129;52.628;10.098;2023-08-21T04:31:04;18.33;;;10.68;;
57281;SDS011;43129;52.628;10.098;2023-08-21T04:33:33;14.55;;;10.27;;
57281;SDS011;43129;52.628;10.098;2023-08-21T04:35:59;11.55;;;10.20;;
57281;SDS011;43129;52.628;10.098;2023-08-21T04:38:25;14.63;;;10.82;;
57281;SDS011;43129;52.628;10.098;2023-08-21T04:40:53;13.02;;;9.82;;
57281;SDS011;43129;52.628;10.098;2023-08-21T04:43:21;11.57;;;10.38;;
57281;SDS011;43129;52.628;10.098;2023-08-21T04:45:52;13.05;;;10.68;;
57281;SDS011;43129;52.628;10.098;2023-08-21T04:48:22;13.52;;;11.38;;
57281;SDS011;43129;52.628;10.098;2023-08-21T04:50:51;16.00;;;10.05;;
57281;SDS011;43129;52.628;10.098;2023-08-21T04:53:16;11.75;;;10.23;;
57281;SDS011;43129;52.628;10.098;2023-08-21T04:55:42;16.40;;;9.57;;
57281;SDS011;43129;52.628;10.098;2023-08-21T04:58:08;12.95;;;9.75;;
57281;SDS011;43129;52.628;10.098;2023-08-21T05:00:34;13.25;;;10.18;;
57281;SDS011;43129;52.628;10.098;2023-08-21T05:03:00;13.93;;;10.18;;
57281;SDS011;43129;52.628;10.098;2023-08-21T05:05:26;18.17;;;10.40;;
57281;SDS011;43129;52.628;10.098;2023-08-21T05:07:52;11.45;;;9.80;;
57281;SDS011;43129;52.628;10.098;2023-08-21T05:10:21;13.43;;;10.25;;
57281;SDS011;43129;52.628;10.098;2023-08-21T05:12:46;11.57;;;9.63;;
57281;SDS011;43129;52.628;10.098;2023-08-21T05:15:12;14.80;;;9.95;;
57281;SDS011;43129;52.628;10.098;2023-08-21T05:17:38;13.10;;;9.38;;
57281;SDS011;43129;52.628;10.098;2023-08-21T05:20:06;13.73;;;10.52;;
57281;SDS011;43129;52.628;10.098;2023-08-21T05:22:39;16.20;;;12.82;;
57281;SDS011;43129;52.628;10.098;2023-08-21T05:25:07;25.58;;;20.42;;
57281;SDS011;43129;52.628;10.098;2023-08-21T05:27:33;29.23;;;18.80;;
57281;SDS011;43129;52.628;10.098;2023-08-21T05:29:59;18.15;;;10.88;;
57281;SDS011;43129;52.628;10.098;2023-08-21T05:32:25;14.00;;;9.98;;
57281;SDS011;43129;52.628;10.098;2023-08-21T05:34:50;14.70;;;9.48;;
57281;SDS011;43129;52.628;10.098;2023-08-21T05:37:16;15.50;;;9.77;;
57281;SDS011;43129;52.628;10.098;2023-08-21T05:39:41;12.88;;;9.70;;
57281;SDS011;43129;52.628;10.098;2023-08-21T05:42:07;14.45;;;9.32;;
57281;SDS011;43129;52.628;10.098;2023-08-21T05:44:33;22.80;;;14.23;;
57281;SDS011;43129;52.628;10.098;2023-08-21T05:46:58;19.88;;;12.95;;
57281;SDS011;43129;52.628;10.098;2023-08-21T05:49:24;19.00;;;11.60;;
57281;SDS011;43129;52.628;10.098;2023-08-21T05:51:49;14.02;;;10.27;;
57281;SDS011;43129;52.628;10.098;2023-08-21T05:54:15;16.70;;;11.18;;
57281;SDS011;43129;52.628;10.098;2023-08-21T05:56:45;18.27;;;10.57;;
57281;SDS011;43129;52.628;10.098;2023-08-21T05:59:13;14.82;;;10.07;;
57281;SDS011;43129;52.628;10.098;2023-08-21T06:01:53;13.77;;;10.02;;
57281;SDS011;43129;52.628;10.098;2023-08-21T06:04:21;11.93;;;9.25;;
57281;SDS011;43129;52.628;10.098;2023-08-21T06:06:47;15.68;;;9.43;;
57281;SDS011;43129;52.628;10.098;2023-08-21T06:09:15;12.10;;;9.98;;
57281;SDS011;43129;52.628;10.098;2023-08-21T06:11:44;17.98;;;9.25;;
57281;SDS011;43129;52.628;10.098;2023-08-21T06:14:12;13.27;;;8.93;;
57281;SDS011;43129;52.628;10.098;2023-08-21T06:16:37;12.82;;;9.55;;
57281;SDS011;43129;52.628;10.098;2023-08-21T06:19:03;14.85;;;8.70;;
57281;SDS011;43129;52.628;10.098;2023-08-21T06:21:31;15.07;;;8.73;;
57281;SDS011;43129;52.628;10.098;2023-08-21T06:23:56;14.65;;;8.80;;
57281;SDS011;43129;52.628;10.098;2023-08-21T06:26:22;12.57;;;9.23;;
57281;SDS011;43129;52.628;10.098;2023-08-21T06:28:48;22.15;;;12.93;;
57281;SDS011;43129;52.628;10.098;2023-08-21T06:31:14;17.65;;;10.68;;
57281;SDS011;43129;52.628;10.098;2023-08-21T06:33:40;16.02;;;10.38;;
57281;SDS011;43129;52.628;10.098;2023-08-21T06:36:08;19.35;;;10.63;;
57281;SDS011;43129;52.628;10.098;2023-08-21T06:38:36;9.80;;;8.13;;
57281;SDS011;43129;52.628;10.098;2023-08-21T06:41:04;61.03;;;38.55;;
57281;SDS011;43129;52.628;10.098;2023-08-21T06:43:29;19.05;;;10.68;;
57281;SDS011;43129;52.628;10.098;2023-08-21T06:45:55;17.65;;;8.10;;
57281;SDS011;43129;52.628;10.098;2023-08-21T06:48:20;15.02;;;6.28;;
57281;SDS011;43129;52.628;10.098;2023-08-21T06:50:50;17.52;;;6.50;;
57281;SDS011;43129;52.628;10.098;2023-08-21T06:53:15;17.52;;;7.45;;
57281;SDS011;43129;52.628;10.098;2023-08-21T06:55:44;12.07;;;6.43;;
57281;SDS011;43129;52.628;10.098;2023-08-21T06:58:12;10.20;;;6.05;;
57281;SDS011;43129;52.628;10.098;2023-08-21T07:00:40;14.43;;;5.90;;
57281;SDS011;43129;52.628;10.098;2023-08-21T07:03:05;13.25;;;7.07;;
57281;SDS011;43129;52.628;10.098;2023-08-21T07:05:34;11.77;;;6.50;;
57281;SDS011;43129;52.628;10.098;2023-08-21T07:07:59;28.83;;;17.52;;
57281;SDS011;43129;52.628;10.098;2023-08-21T07:10:25;18.90;;;10.90;;
57281;SDS011;43129;52.628;10.098;2023-08-21T07:12:54;19.77;;;9.93;;
57281;SDS011;43129;52.628;10.098;2023-08-21T07:15:22;15.02;;;7.05;;
57281;SDS011;43129;52.628;10.098;2023-08-21T07:17:47;8.73;;;3.97;;
57281;SDS011;43129;52.628;10.098;2023-08-21T07:20:13;10.30;;;4.20;;
57281;SDS011;43129;52.628;10.098;2023-08-21T07:22:39;9.77;;;4.18;;
57281;SDS011;43129;52.628;10.098;2023-08-21T07:25:04;17.00;;;10.52;;
57281;SDS011;43129;52.628;10.098;2023-08-21T07:27:30;17.02;;;11.85;;
57281;SDS011;43129;52.628;10.098;2023-08-21T07:29:57;56.17;;;42.60;;
57281;SDS011;43129;52.628;10.098;2023-08-21T07:32:25;30.80;;;19.35;;
57281;SDS011;43129;52.628;10.098;2023-08-21T07:34:53;7.28;;;4.00;;
57281;SDS011;43129;52.628;10.098;2023-08-21T07:37:19;17.17;;;8.15;;
57281;SDS011;43129;52.628;10.098;2023-08-21T07:39:47;13.45;;;5.88;;
57281;SDS011;43129;52.628;10.098;2023-08-21T07:42:13;13.90;;;6.07;;
57281;SDS011;43129;52.628;10.098;2023-08-21T07:44:39;18.92;;;4.95;;
57281;SDS011;43129;52.628;10.098;2023-08-21T07:47:09;12.82;;;6.20;;
57281;SDS011;43129;52.628;10.098;2023-08-21T07:49:35;16.17;;;7.93;;
57281;SDS011;43129;52.628;10.098;2023-08-21T07:52:03;12.90;;;6.43;;
57281;SDS011;43129;52.628;10.098;2023-08-21T07:54:29;25.13;;;14.23;;
57281;SDS011;43129;52.628;10.098;2023-08-21T07:56:55;17.05;;;9.95;;
57281;SDS011;43129;52.628;10.098;2023-08-21T07:59:21;9.77;;;4.40;;
57281;SDS011;43129;52.628;10.098;2023-08-21T08:01:49;9.82;;;4.50;;
57281;SDS011;43129;52.628;10.098;2023-08-21T08:04:15;11.35;;;3.67;;
57281;SDS011;43129;52.628;10.098;2023-08-21T08:06:43;8.43;;;2.85;;
57281;SDS011;43129;52.628;10.098;2023-08-21T08:09:11;7.90;;;2.40;;
57281;SDS011;43129;52.628;10.098;2023-08-21T08:11:36;5.63;;;2.22;;
57281;SDS011;43129;52.628;10.098;2023-08-21T08:14:02;8.23;;;2.55;;
57281;SDS011;43129;52.628;10.098;2023-08-21T08:16:30;14.45;;;3.15;;
57281;SDS011;43129;52.628;10.098;2023-08-21T08:18:56;11.20;;;2.88;;
57281;SDS011;43129;52.628;10.098;2023-08-21T08:21:23;11.85;;;3.95;;
57281;SDS011;43129;52.628;10.098;2023-08-21T08:23:49;17.23;;;7.53;;
57281;SDS011;43129;52.628;10.098;2023-08-21T08:26:14;20.73;;;9.52;;
57281;SDS011;43129;52.628;10.098;2023-08-21T08:28:42;17.52;;;6.95;;
57281;SDS011;43129;52.628;10.098;2023-08-21T08:31:16;15.50;;;6.57;;
57281;SDS011;43129;52.628;10.098;2023-08-21T08:33:42;32.75;;;9.88;;
57281;SDS011;43129;52.628;10.098;2023-08-21T08:36:11;34.47;;;11.80;;
57281;SDS011;43129;52.628;10.098;2023-08-21T08:38:39;17.60;;;4.20;;
57281;SDS011;43129;52.628;10.098;2023-08-21T08:41:10;21.85;;;9.95;;
57281;SDS011;43129;52.628;10.098;2023-08-21T08:43:44;11.90;;;3.25;;
57281;SDS011;43129;52.628;10.098;2023-08-21T08:46:11;11.95;;;2.47;;
57281;SDS011;43129;52.628;10.098;2023-08-21T08:48:37;4.68;;;2.00;;
57281;SDS011;43129;52.628;10.098;2023-08-21T08:51:07;6.57;;;2.20;;
57281;SDS011;43129;52.628;10.098;2023-08-21T08:53:33;6.32;;;2.20;;
57281;SDS011;43129;52.628;10.098;2023-08-21T08:56:00;7.78;;;2.90;;
57281;SDS011;43129;52.628;10.098;2023-08-21T08:58:29;10.00;;;5.25;;
57281;SDS011;43129;52.628;10.098;2023-08-21T09:01:00;8.50;;;2.25;;
57281;SDS011;43129;52.628;10.098;2023-08-21T09:03:26;7.60;;;3.08;;
57281;SDS011;43129;52.628;10.098;2023-08-21T09:05:54;6.32;;;2.03;;
57281;SDS011;43129;52.628;10.098;2023-08-21T09:08:25;5.65;;;2.20;;
57281;SDS011;43129;52.628;10.098;2023-08-21T09:10:50;9.52;;;3.08;;
57281;SDS011;43129;52.628;10.098;2023-08-21T09:13:17;8.77;;;2.83;;
57281;SDS011;43129;52.628;10.098;2023-08-21T09:15:53;6.63;;;2.70;;
57281;SDS011;43129;52.628;10.098;2023-08-21T09:18:20;11.27;;;6.43;;
57281;SDS011;43129;52.628;10.098;2023-08-21T09:20:48;7.45;;;2.75;;
57281;SDS011;43129;52.628;10.098;2023-08-21T09:23:14;6.60;;;2.13;;
57281;SDS011;43129;52.628;10.098;2023-08-21T09:25:41;6.20;;;2.35;;
57281;SDS011;43129;52.628;10.098;2023-08-21T09:28:12;3.42;;;1.58;;
57281;SDS011;43129;52.628;10.098;2023-08-21T09:33:21;8.57;;;2.25;;
57281;SDS011;43129;52.628;10.098;2023-08-21T09:35:48;3.97;;;1.88;;
57281;SDS011;43129;52.628;10.098;2023-08-21T09:38:17;6.00;;;3.05;;
57281;SDS011;43129;52.628;10.098;2023-08-21T09:40:50;5.10;;;2.25;;
57281;SDS011;43129;52.628;10.098;2023-08-21T09:43:17;6.70;;;4.00;;
57281;SDS011;43129;52.628;10.098;2023-08-21T09:45:47;5.60;;;2.35;;
57281;SDS011;43129;52.628;10.098;2023-08-21T09:48:23;7.45;;;3.25;;
57281;SDS011;43129;52.628;10.098;2023-08-21T09:50:57;4.68;;;2.13;;
57281;SDS011;43129;52.628;10.098;2023-08-21T09:53:24;6.45;;;2.97;;
57281;SDS011;43129;52.628;10.098;2023-08-21T09:55:53;6.25;;;2.65;;
57281;SDS011;43129;52.628;10.098;2023-08-21T09:58:19;9.68;;;4.50;;
57281;SDS011;43129;52.628;10.098;2023-08-21T10:00:45;7.10;;;2.28;;
57281;SDS011;43129;52.628;10.098;2023-08-21T10:03:18;7.18;;;3.28;;
57281;SDS011;43129;52.628;10.098;2023-08-21T10:05:46;8.45;;;3.97;;
57281;SDS011;43129;52.628;10.098;2023-08-21T10:08:13;4.95;;;2.72;;
57281;SDS011;43129;52.628;10.098;2023-08-21T10:10:41;5.95;;;2.03;;
57281;SDS011;43129;52.628;10.098;2023-08-21T10:13:07;3.88;;;1.85;;
57281;SDS011;43129;52.628;10.098;2023-08-21T10:15:33;8.07;;;2.30;;
57281;SDS011;43129;52.628;10.098;2023-08-21T10:18:35;5.82;;;2.30;;
57281;SDS011;43129;52.628;10.098;2023-08-21T10:21:09;6.95;;;2.30;;
57281;SDS011;43129;52.628;10.098;2023-08-21T10:23:47;5.20;;;2.00;;
57281;SDS011;43129;52.628;10.098;2023-08-21T10:26:14;6.50;;;2.30;;
57281;SDS011;43129;52.628;10.098;2023-08-21T10:32:01;4.93;;;1.63;;
57281;SDS011;43129;52.628;10.098;2023-08-21T10:34:09;6.63;;;2.13;;
57281;SDS011;43129;52.628;10.098;2023-08-21T10:39:04;7.68;;;2.40;;
57281;SDS011;43129;52.628;10.098;2023-08-21T10:41:39;10.80;;;5.45;;
57281;SDS011;43129;52.628;10.098;2023-08-21T10:44:17;7.00;;;3.53;;
57281;SDS011;43129;52.628;10.098;2023-08-21T10:49:59;5.32;;;2.80;;
57281;SDS011;43129;52.628;10.098;2023-08-21T10:52:29;5.88;;;2.55;;
57281;SDS011;43129;52.628;10.098;2023-08-21T10:54:58;4.50;;;2.25;;
57281;SDS011;43129;52.628;10.098;2023-08-21T10:57:27;5.43;;;2.65;;
57281;SDS011;43129;52.628;10.098;2023-08-21T10:59:55;8.43;;;2.47;;
57281;SDS011;43129;52.628;10.098;2023-08-21T11:02:21;5.88;;;2.33;;
57281;SDS011;43129;52.628;10.098;2023-08-21T11:04:50;16.33;;;13.90;;
57281;SDS011;43129;52.628;10.098;2023-08-21T11:07:19;5.82;;;2.60;;
57281;SDS011;43129;52.628;10.098;2023-08-21T11:09:47;6.60;;;3.35;;
57281;SDS011;43129;52.628;10.098;2023-08-21T11:12:17;22.10;;;19.15;;
57281;SDS011;43129;52.628;10.098;2023-08-21T11:14:46;7.78;;;6.20;;
57281;SDS011;43129;52.628;10.098;2023-08-21T11:17:12;6.45;;;2.08;;
57281;SDS011;43129;52.628;10.098;2023-08-21T11:19:39;3.92;;;1.77;;
57281;SDS011;43129;52.628;10.098;2023-08-21T11:22:11;3.30;;;1.63;;
57281;SDS011;43129;52.628;10.098;2023-08-21T11:27:24;5.03;;;2.00;;
57281;SDS011;43129;52.628;10.098;2023-08-21T11:29:52;6.03;;;1.77;;
57281;SDS011;43129;52.628;10.098;2023-08-21T11:32:21;4.05;;;1.73;;
57281;SDS011;43129;52.628;10.098;2023-08-21T11:37:17;3.78;;;1.65;;
57281;SDS011;43129;52.628;10.098;2023-08-21T11:39:45;5.10;;;2.58;;
57281;SDS011;43129;52.628;10.098;2023-08-21T11:42:15;4.78;;;2.22;;
57281;SDS011;43129;52.628;10.098;2023-08-21T11:44:45;3.78;;;1.83;;
57281;SDS011;43129;52.628;10.098;2023-08-21T11:47:16;3.58;;;1.60;;
57281;SDS011;43129;52.628;10.098;2023-08-21T11:49:43;4.38;;;1.80;;
57281;SDS011;43129;52.628;10.098;2023-08-21T11:52:12;6.53;;;1.80;;
57281;SDS011;43129;52.628;10.098;2023-08-21T11:54:41;3.78;;;1.58;;
57281;SDS011;43129;52.628;10.098;2023-08-21T11:57:11;3.67;;;1.67;;
57281;SDS011;43129;52.628;10.098;2023-08-21T11:59:41;2.53;;;1.38;;
57281;SDS011;43129;52.628;10.098;2023-08-21T12:02:10;4.43;;;1.75;;
57281;SDS011;43129;52.628;10.098;2023-08-21T12:04:40;3.53;;;1.50;;
57281;SDS011;43129;52.628;10.098;2023-08-21T12:07:08;2.85;;;1.50;;
57281;SDS011;43129;52.628;10.098;2023-08-21T12:09:36;3.47;;;1.33;;
57281;SDS011;43129;52.628;10.098;2023-08-21T12:12:02;5.78;;;1.50;;
57281;SDS011;43129;52.628;10.098;2023-08-21T12:14:30;2.97;;;1.70;;
57281;SDS011;43129;52.628;10.098;2023-08-21T12:16:58;2.85;;;1.35;;
57281;SDS011;43129;52.628;10.098;2023-08-21T12:19:24;3.38;;;1.48;;
57281;SDS011;43129;52.628;10.098;2023-08-21T12:21:52;2.88;;;1.10;;
57281;SDS011;43129;52.628;10.098;2023-08-21T12:24:18;3.97;;;1.52;;
57281;SDS011;43129;52.628;10.098;2023-08-21T12:26:43;4.97;;;1.50;;
57281;SDS011;43129;52.628;10.098;2023-08-21T12:29:11;3.88;;;1.30;;
57281;SDS011;43129;52.628;10.098;2023-08-21T12:31:37;4.10;;;1.70;;
57281;SDS011;43129;52.628;10.098;2023-08-21T12:34:02;4.63;;;2.65;;
57281;SDS011;43129;52.628;10.098;2023-08-21T12:36:33;5.80;;;1.80;;
57281;SDS011;43129;52.628;10.098;2023-08-21T12:39:01;5.22;;;2.10;;
57281;SDS011;43129;52.628;10.098;2023-08-21T12:41:30;2.95;;;1.40;;
57281;SDS011;43129;52.628;10.098;2023-08-21T12:43:58;2.35;;;1.40;;
57281;SDS011;43129;52.628;10.098;2023-08-21T12:46:28;4.03;;;1.50;;
57281;SDS011;43129;52.628;10.098;2023-08-21T12:48:54;3.25;;;1.73;;
57281;SDS011;43129;52.628;10.098;2023-08-21T12:51:20;5.53;;;1.80;;
57281;SDS011;43129;52.628;10.098;2023-08-21T12:53:49;4.70;;;1.83;;
57281;SDS011;43129;52.628;10.098;2023-08-21T12:56:16;8.05;;;2.83;;
57281;SDS011;43129;52.628;10.098;2023-08-21T12:58:45;3.78;;;2.90;;
57281;SDS011;43129;52.628;10.098;2023-08-21T13:01:13;3.55;;;1.80;;
57281;SDS011;43129;52.628;10.098;2023-08-21T13:03:43;2.50;;;1.45;;
57281;SDS011;43129;52.628;10.098;2023-08-21T13:06:16;2.88;;;1.52;;
57281;SDS011;43129;52.628;10.098;2023-08-21T13:08:45;6.03;;;2.30;;
57281;SDS011;43129;52.628;10.098;2023-08-21T13:11:13;3.85;;;2.10;;
57281;SDS011;43129;52.628;10.098;2023-08-21T13:13:41;8.95;;;5.47;;
57281;SDS011;43129;52.628;10.098;2023-08-21T13:16:06;4.95;;;2.15;;
57281;SDS011;43129;52.628;10.098;2023-08-21T13:18:34;3.08;;;1.45;;
57281;SDS011;43129;52.628;10.098;2023-08-21T13:21:00;8.00;;;2.50;;
57281;SDS011;43129;52.628;10.098;2023-08-21T13:23:28;5.38;;;2.70;;
57281;SDS011;43129;52.628;10.098;2023-08-21T13:25:54;5.55;;;1.83;;
57281;SDS011;43129;52.628;10.098;2023-08-21T13:28:27;3.17;;;1.50;;
57281;SDS011;43129;52.628;10.098;2023-08-21T13:30:56;4.93;;;1.50;;
57281;SDS011;43129;52.628;10.098;2023-08-21T13:33:24;5.75;;;1.90;;
57281;SDS011;43129;52.628;10.098;2023-08-21T13:35:50;3.35;;;1.42;;
57281;SDS011;43129;52.628;10.098;2023-08-21T13:38:20;5.25;;;2.90;;
57281;SDS011;43129;52.628;10.098;2023-08-21T13:40:46;3.17;;;1.75;;
57281;SDS011;43129;52.628;10.098;2023-08-21T13:43:11;3.05;;;1.50;;
57281;SDS011;43129;52.628;10.098;2023-08-21T13:45:37;2.42;;;1.20;;
57281;SDS011;43129;52.628;10.098;2023-08-21T13:48:05;2.72;;;1.27;;
57281;SDS011;43129;52.628;10.098;2023-08-21T13:50:33;3.55;;;1.85;;
57281;SDS011;43129;52.628;10.098;2023-08-21T13:53:00;5.22;;;2.50;;
57281;SDS011;43129;52.628;10.098;2023-08-21T13:55:28;3.92;;;3.10;;
57281;SDS011;43129;52.628;10.098;2023-08-21T13:57:54;3.50;;;1.90;;
57281;SDS011;43129;52.628;10.098;2023-08-21T14:00:22;2.13;;;1.60;;
57281;SDS011;43129;52.628;10.098;2023-08-21T14:02:50;2.63;;;1.35;;
57281;SDS011;43129;52.628;10.098;2023-08-21T14:05:15;4.22;;;1.60;;
57281;SDS011;43129;52.628;10.098;2023-08-21T14:07:43;4.32;;;1.60;;
57281;SDS011;43129;52.628;10.098;2023-08-21T14:10:09;5.82;;;3.58;;
57281;SDS011;43129;52.628;10.098;2023-08-21T14:12:38;7.00;;;5.93;;
57281;SDS011;43129;52.628;10.098;2023-08-21T14:15:06;2.22;;;1.60;;
57281;SDS011;43129;52.628;10.098;2023-08-21T14:17:32;5.03;;;2.22;;
57281;SDS011;43129;52.628;10.098;2023-08-21T14:20:00;2.75;;;1.58;;
57281;SDS011;43129;52.628;10.098;2023-08-21T14:22:29;2.28;;;1.45;;
57281;SDS011;43129;52.628;10.098;2023-08-21T14:24:55;3.60;;;1.88;;
57281;SDS011;43129;52.628;10.098;2023-08-21T14:27:20;5.40;;;1.80;;
57281;SDS011;43129;52.628;10.098;2023-08-21T14:29:46;4.03;;;2.00;;
57281;SDS011;43129;52.628;10.098;2023-08-21T14:32:12;3.45;;;1.67;;
57281;SDS011;43129;52.628;10.098;2023-08-21T14:34:38;4.70;;;1.88;;
57281;SDS011;43129;52.628;10.098;2023-08-21T14:37:06;2.00;;;1.40;;
57281;SDS011;43129;52.628;10.098;2023-08-21T14:39:32;2.15;;;1.60;;
57281;SDS011;43129;52.628;10.098;2023-08-21T14:42:00;3.78;;;2.08;;
57281;SDS011;43129;52.628;10.098;2023-08-21T14:44:26;3.33;;;1.80;;
57281;SDS011;43129;52.628;10.098;2023-08-21T14:46:54;4.20;;;1.80;;
57281;SDS011;43129;52.628;10.098;2023-08-21T14:49:23;1.98;;;1.63;;